Dai28 Aominesanmaru — JH3345 — position and weather

sailwx.info

Track history (hours):
 
Tides and Currents Weather Stations Pressure Air Temp Water Temp Dewpoint Dewpoint Depression Visibility Wind Speed Wind Dir Waves Ship Positions

Dai28 Aominesanmaru

Last reported at 2018-Jul-15 22:48 UTC. Time now 2018-Jul-16 06:48 UTC.
Position N 35°31' E 139°52'.

Length 47 m.

Type: Tanker. MMSI: 431008216.

Date/timePositionNaut miles runAvg speedWind from/ knotsBaromVisibWave heightAir tempDewpointWater temp
2018-Jul-15 22:48N 35°31' E 139°52'6 0.3
2018-Jul-15 01:06N 35°31' E 139°45'1 4.2
2018-Jul-15 00:51N 35°30' E 139°44'410.6
2018-Jul-15 00:30N 35°28' E 139°40'1 1.8
2018-Jul-14 23:55N 35°27' E 139°41'0 0.0
2018-Jul-14 23:25N 35°27' E 139°41'1 2.5
2018-Jul-14 23:00N 35°28' E 139°40'5 0.3
2018-Jul-14 05:20N 35°31' E 139°45'6 0.9
2018-Jul-13 22:20N 35°31' E 139°53'6 8.5
2018-Jul-13 21:39N 35°30' E 139°45'2 0.1
2018-Jul-12 22:05N 35°30' E 139°49'310.5
2018-Jul-12 21:50N 35°30' E 139°45'1 0.0
2018-Jul-11 07:39N 35°31' E 139°45'1 4.6
2018-Jul-11 07:29N 35°30' E 139°45'5 9.8
2018-Jul-11 06:59N 35°27' E 139°41'0 0.3
2018-Jul-11 06:28N 35°27' E 139°40'0 0.0
2018-Jul-11 05:36N 35°27' E 139°40'0 3.6
2018-Jul-11 05:30N 35°27' E 139°41'1 1.6
2018-Jul-11 04:48N 35°27' E 139°42'5 0.1
2018-Jul-09 07:05N 35°31' E 139°45'1 6.8
2018-Jul-09 06:58N 35°30' E 139°45'4 8.2
2018-Jul-09 06:26N 35°26' E 139°42'3 7.3
2018-Jul-09 06:01N 35°24' E 139°40'2 1.1
2018-Jul-09 04:32N 35°25' E 139°38'0 0.1
2018-Jul-09 04:29N 35°25' E 139°38'1 1.0
2018-Jul-09 03:48N 35°24' E 139°39'0 0.0
2018-Jul-09 03:18N 35°24' E 139°39'2 5.7
2018-Jul-09 02:55N 35°24' E 139°42'510.6
2018-Jul-09 02:25N 35°27' E 139°47'4 0.2
2018-Jul-08 08:52N 35°31' E 139°45'4 7.4
2018-Jul-08 08:20N 35°28' E 139°43'4 8.9
2018-Jul-08 07:51N 35°24' E 139°41'2 4.8
2018-Jul-08 07:23N 35°25' E 139°38'0 0.0
2018-Jul-08 06:59N 35°25' E 139°38'0 0.0
2018-Jul-08 06:28N 35°25' E 139°38'1 1.0
2018-Jul-08 05:46N 35°24' E 139°39'0 0.0
2018-Jul-08 05:28N 35°24' E 139°39'0 0.1
2018-Jul-08 04:52N 35°24' E 139°39'0 0.1
2018-Jul-08 04:13N 35°24' E 139°39'0 0.1
2018-Jul-08 03:56N 35°24' E 139°39'3 5.7
2018-Jul-08 03:29N 35°26' E 139°42'3 5.4
2018-Jul-08 03:00N 35°28' E 139°41'0 0.0
2018-Jul-08 02:27N 35°28' E 139°41'0 0.0
2018-Jul-08 00:30N 35°28' E 139°41'0 0.0
2018-Jul-07 23:51N 35°28' E 139°41'0 0.0
2018-Jul-07 23:27N 35°28' E 139°41'1 2.6
2018-Jul-07 23:00N 35°29' E 139°42'7 0.3
2018-Jul-07 00:32N 35°30' E 139°51'410.6
2018-Jul-07 00:07N 35°30' E 139°45'1 0.0
2018-Jul-06 02:12N 35°31' E 139°45'  
Track history (hours):
 
Tides and Currents Weather Stations Pressure Air Temp Water Temp Dewpoint Dewpoint Depression Visibility Wind Speed Wind Dir Waves Ship Positions

Dai28 Aominesanmaru

Last reported at 2018-Jul-15 22:48 UTC. Time now 2018-Jul-16 06:48 UTC.
Position N 35°31' E 139°52'.

Length 47 m.

Type: Tanker. MMSI: 431008216.

Date/timePositionNaut miles runAvg speedWind from/ knotsBaromVisibWave heightAir tempDewpointWater temp
2018-Jul-15 22:48N 35°31' E 139°52'6 0.3
2018-Jul-15 01:06N 35°31' E 139°45'1 4.2
2018-Jul-15 00:51N 35°30' E 139°44'410.6
2018-Jul-15 00:30N 35°28' E 139°40'1 1.8
2018-Jul-14 23:55N 35°27' E 139°41'0 0.0
2018-Jul-14 23:25N 35°27' E 139°41'1 2.5
2018-Jul-14 23:00N 35°28' E 139°40'5 0.3
2018-Jul-14 05:20N 35°31' E 139°45'6 0.9
2018-Jul-13 22:20N 35°31' E 139°53'6 8.5
2018-Jul-13 21:39N 35°30' E 139°45'2 0.1
2018-Jul-12 22:05N 35°30' E 139°49'310.5
2018-Jul-12 21:50N 35°30' E 139°45'1 0.0
2018-Jul-11 07:39N 35°31' E 139°45'1 4.6
2018-Jul-11 07:29N 35°30' E 139°45'5 9.8
2018-Jul-11 06:59N 35°27' E 139°41'0 0.3
2018-Jul-11 06:28N 35°27' E 139°40'0 0.0
2018-Jul-11 05:36N 35°27' E 139°40'0 3.6
2018-Jul-11 05:30N 35°27' E 139°41'1 1.6
2018-Jul-11 04:48N 35°27' E 139°42'5 0.1
2018-Jul-09 07:05N 35°31' E 139°45'1 6.8
2018-Jul-09 06:58N 35°30' E 139°45'4 8.2
2018-Jul-09 06:26N 35°26' E 139°42'3 7.3
2018-Jul-09 06:01N 35°24' E 139°40'2 1.1
2018-Jul-09 04:32N 35°25' E 139°38'0 0.1
2018-Jul-09 04:29N 35°25' E 139°38'1 1.0
2018-Jul-09 03:48N 35°24' E 139°39'0 0.0
2018-Jul-09 03:18N 35°24' E 139°39'2 5.7
2018-Jul-09 02:55N 35°24' E 139°42'510.6
2018-Jul-09 02:25N 35°27' E 139°47'4 0.2
2018-Jul-08 08:52N 35°31' E 139°45'4 7.4
2018-Jul-08 08:20N 35°28' E 139°43'4 8.9
2018-Jul-08 07:51N 35°24' E 139°41'2 4.8
2018-Jul-08 07:23N 35°25' E 139°38'0 0.0
2018-Jul-08 06:59N 35°25' E 139°38'0 0.0
2018-Jul-08 06:28N 35°25' E 139°38'1 1.0
2018-Jul-08 05:46N 35°24' E 139°39'0 0.0
2018-Jul-08 05:28N 35°24' E 139°39'0 0.1
2018-Jul-08 04:52N 35°24' E 139°39'0 0.1
2018-Jul-08 04:13N 35°24' E 139°39'0 0.1
2018-Jul-08 03:56N 35°24' E 139°39'3 5.7
2018-Jul-08 03:29N 35°26' E 139°42'3 5.4
2018-Jul-08 03:00N 35°28' E 139°41'0 0.0
2018-Jul-08 02:27N 35°28' E 139°41'0 0.0
2018-Jul-08 00:30N 35°28' E 139°41'0 0.0
2018-Jul-07 23:51N 35°28' E 139°41'0 0.0
2018-Jul-07 23:27N 35°28' E 139°41'1 2.6
2018-Jul-07 23:00N 35°29' E 139°42'7 0.3
2018-Jul-07 00:32N 35°30' E 139°51'410.6
2018-Jul-07 00:07N 35°30' E 139°45'1 0.0
2018-Jul-06 02:12N 35°31' E 139°45'  

Dump ship's entire track history